createdAt,value
2023-04-07T00:02:01.961Z,47.39
2023-04-07T00:04:30.183Z,47.51
2023-04-07T00:06:58.264Z,46.86
2023-04-07T00:09:27.622Z,46.94
2023-04-07T00:11:56.339Z,47.10
2023-04-07T00:14:24.256Z,47.60
2023-04-07T00:16:52.178Z,48.54
2023-04-07T00:19:20.202Z,48.86
2023-04-07T00:21:48.126Z,48.60
2023-04-07T00:24:18.570Z,49.41
2023-04-07T00:26:56.855Z,47.98
2023-04-07T00:29:24.939Z,48.63
2023-04-07T00:31:52.885Z,49.02
2023-04-07T00:34:20.854Z,49.03
2023-04-07T00:36:52.250Z,48.19
2023-04-07T00:39:20.821Z,48.54
2023-04-07T00:41:50.027Z,47.99
2023-04-07T00:44:19.261Z,48.80
2023-04-07T00:46:49.068Z,48.10
2023-04-07T00:49:17.919Z,48.54
2023-04-07T00:51:47.086Z,48.17
2023-04-07T00:54:15.016Z,47.64
2023-04-07T00:56:43.794Z,48.55
2023-04-07T00:59:12.005Z,48.61
2023-04-07T01:01:47.336Z,48.38
2023-04-07T01:04:24.005Z,48.90
2023-04-07T01:06:55.988Z,48.89
2023-04-07T01:09:31.468Z,49.83
2023-04-07T01:12:06.543Z,48.89
2023-04-07T01:14:38.997Z,49.31
2023-04-07T01:17:09.391Z,49.22
2023-04-07T01:19:40.848Z,48.53
2023-04-07T01:22:12.940Z,49.05
2023-04-07T01:24:55.925Z,49.59
2023-04-07T01:27:37.666Z,49.64
2023-04-07T01:30:11.617Z,49.85
2023-04-07T01:32:41.875Z,49.98
2023-04-07T01:35:13.592Z,49.71
2023-04-07T01:37:42.776Z,50.31
2023-04-07T01:40:12.801Z,49.78
2023-04-07T01:42:42.213Z,50.26
2023-04-07T01:45:12.621Z,49.49
2023-04-07T01:47:41.351Z,50.01
2023-04-07T01:50:12.112Z,50.14
2023-04-07T01:52:41.547Z,49.69
2023-04-07T01:55:10.204Z,49.97
2023-04-07T01:57:38.235Z,50.93
2023-04-07T02:00:07.778Z,49.95
2023-04-07T02:02:42.668Z,50.40
2023-04-07T02:05:16.229Z,50.76
2023-04-07T02:07:54.928Z,51.43
2023-04-07T02:10:25.004Z,50.81
2023-04-07T02:12:54.223Z,50.13
2023-04-07T02:15:23.614Z,50.11
2023-04-07T02:17:54.701Z,50.79
2023-04-07T02:20:24.755Z,50.98
2023-04-07T02:22:53.837Z,50.53
2023-04-07T02:25:26.488Z,50.21
2023-04-07T02:27:55.616Z,50.58
2023-04-07T02:30:23.656Z,50.43
2023-04-07T02:32:53.246Z,50.14
2023-04-07T02:35:21.774Z,50.19
2023-04-07T02:37:50.677Z,49.61
2023-04-07T02:40:18.725Z,49.39
2023-04-07T02:42:47.368Z,49.58
2023-04-07T02:45:16.144Z,49.75
2023-04-07T02:47:44.155Z,50.12
2023-04-07T02:50:13.724Z,49.43
2023-04-07T02:52:41.720Z,49.50
2023-04-07T02:55:10.659Z,50.02
2023-04-07T02:57:38.570Z,48.43
2023-04-07T03:00:07.628Z,49.42
2023-04-07T03:02:35.710Z,50.03
2023-04-07T03:05:04.504Z,50.08
2023-04-07T03:07:33.845Z,49.59
2023-04-07T03:10:02.002Z,49.66
2023-04-07T03:12:30.007Z,50.07
2023-04-07T03:14:57.972Z,50.49
2023-04-07T03:17:26.408Z,49.31
2023-04-07T03:19:54.443Z,49.75
2023-04-07T03:22:22.365Z,50.61
2023-04-07T03:24:51.628Z,50.12
2023-04-07T03:27:20.333Z,51.86
2023-04-07T03:29:48.427Z,50.68
2023-04-07T03:32:16.403Z,51.37
2023-04-07T03:34:44.248Z,50.09
2023-04-07T03:37:12.168Z,49.12
2023-04-07T03:39:41.174Z,49.41
2023-04-07T03:42:10.487Z,48.76
2023-04-07T03:44:38.394Z,49.37
2023-04-07T03:47:06.459Z,49.01
2023-04-07T03:49:34.403Z,50.02
2023-04-07T03:52:02.373Z,48.85
2023-04-07T03:54:30.246Z,49.27
2023-04-07T03:56:58.481Z,49.47
2023-04-07T03:59:27.776Z,49.12
2023-04-07T04:01:55.804Z,50.29
2023-04-07T04:04:24.709Z,49.59
2023-04-07T04:06:52.924Z,49.48
2023-04-07T04:09:21.014Z,50.26
2023-04-07T04:11:48.977Z,50.57
2023-04-07T04:14:17.406Z,49.55
2023-04-07T04:16:46.683Z,50.47
2023-04-07T04:19:14.555Z,50.65
2023-04-07T04:21:42.525Z,51.27
2023-04-07T04:24:10.880Z,49.61
2023-04-07T04:26:38.953Z,50.26
2023-04-07T04:29:06.888Z,48.18
2023-04-07T04:31:34.908Z,48.94
2023-04-07T04:34:04.227Z,48.19
2023-04-07T04:36:32.330Z,49.01
2023-04-07T04:39:00.408Z,48.88
2023-04-07T04:41:28.414Z,48.94
2023-04-07T04:43:56.305Z,47.87
2023-04-07T04:46:24.299Z,47.43
2023-04-07T04:48:52.766Z,47.84
2023-04-07T04:51:22.013Z,48.18
2023-04-07T04:53:49.981Z,47.03
2023-04-07T04:56:17.908Z,47.88
2023-04-07T04:58:46.640Z,48.10
2023-04-07T05:01:14.875Z,47.14
2023-04-07T05:03:43.207Z,47.12
2023-04-07T05:06:11.313Z,48.33
2023-04-07T05:08:40.664Z,46.71
2023-04-07T05:11:08.581Z,46.59
2023-04-07T05:13:36.774Z,47.48
2023-04-07T05:16:04.942Z,46.01
2023-04-07T05:18:32.881Z,45.78
2023-04-07T05:21:01.942Z,45.69
2023-04-07T05:23:29.910Z,45.82
2023-04-07T05:25:59.207Z,47.08
2023-04-07T05:28:27.157Z,44.50
2023-04-07T05:30:55.080Z,44.77
2023-04-07T05:33:23.027Z,45.35
2023-04-07T05:35:51.012Z,43.98
2023-04-07T05:38:18.863Z,43.42
2023-04-07T05:40:48.329Z,42.54
2023-04-07T05:43:17.698Z,42.87
2023-04-07T05:45:45.748Z,42.65
2023-04-07T05:48:13.700Z,43.35
2023-04-07T05:50:41.665Z,42.80
2023-04-07T05:53:09.701Z,43.63
2023-04-07T05:55:37.646Z,43.73
2023-04-07T05:58:05.676Z,41.07
2023-04-07T06:00:34.967Z,42.28
2023-04-07T06:03:03.951Z,39.81
2023-04-07T06:05:32.052Z,39.90
2023-04-07T06:07:59.965Z,40.75
2023-04-07T06:10:27.873Z,40.45
2023-04-07T06:12:56.198Z,39.24
2023-04-07T06:15:24.164Z,39.26
2023-04-07T06:17:53.626Z,39.07
2023-04-07T06:20:23.159Z,37.59
2023-04-07T06:22:51.190Z,36.55
2023-04-07T06:25:19.226Z,36.69
2023-04-07T06:27:47.205Z,37.30
2023-04-07T06:30:16.179Z,36.98
2023-04-07T06:32:44.209Z,37.80
2023-04-07T06:35:13.530Z,38.72
2023-04-07T06:37:41.676Z,37.69
2023-04-07T06:40:10.532Z,37.90
2023-04-07T06:42:38.409Z,38.61
2023-04-07T06:45:07.176Z,35.92
2023-04-07T06:47:35.101Z,36.58
2023-04-07T06:50:03.113Z,35.97
2023-04-07T06:52:32.445Z,35.56
2023-04-07T06:55:00.893Z,34.33
2023-04-07T06:57:28.824Z,33.53
2023-04-07T06:59:56.918Z,33.59
2023-04-07T07:02:24.976Z,33.95
2023-04-07T07:04:53.075Z,33.51
2023-04-07T07:07:21.467Z,32.94
2023-04-07T07:09:50.854Z,32.38
2023-04-07T07:12:18.931Z,33.93
2023-04-07T07:14:46.945Z,35.48
2023-04-07T07:17:15.421Z,34.73
2023-04-07T07:19:43.533Z,32.86
2023-04-07T07:22:11.554Z,33.58
2023-04-07T07:24:39.729Z,31.30
2023-04-07T07:27:09.140Z,30.71
2023-04-07T07:29:37.366Z,31.21
2023-04-07T07:32:05.712Z,32.48
2023-04-07T07:34:34.409Z,33.44
2023-04-07T07:37:02.322Z,30.72
2023-04-07T07:39:30.697Z,31.56
2023-04-07T07:41:58.668Z,30.46
2023-04-07T07:44:28.825Z,30.91
2023-04-07T07:46:58.304Z,31.21
2023-04-07T07:49:26.397Z,31.79
2023-04-07T07:51:54.420Z,32.73
2023-04-07T07:54:22.500Z,30.89
2023-04-07T07:56:50.464Z,31.01
2023-04-07T07:59:18.660Z,30.35
2023-04-07T08:01:48.073Z,31.02
2023-04-07T08:04:16.092Z,30.93
2023-04-07T08:06:44.266Z,31.74
2023-04-07T08:09:12.340Z,33.68
2023-04-07T08:11:40.333Z,31.23
2023-04-07T08:14:09.821Z,31.48
2023-04-07T08:16:38.124Z,31.52
2023-04-07T08:19:07.779Z,30.38
2023-04-07T08:21:35.860Z,30.09
2023-04-07T08:24:04.549Z,30.90
2023-04-07T08:26:32.797Z,30.00
2023-04-07T08:29:00.777Z,31.18
2023-04-07T08:31:28.895Z,30.87
2023-04-07T08:33:58.333Z,30.48
2023-04-07T08:36:28.947Z,31.04
2023-04-07T08:38:56.950Z,32.36
2023-04-07T08:41:31.671Z,31.19
2023-04-07T08:44:00.823Z,32.71
2023-04-07T08:46:30.524Z,34.54
2023-04-07T08:48:59.126Z,32.00
2023-04-07T08:51:31.921Z,30.85
2023-04-07T08:54:07.953Z,32.05
2023-04-07T08:56:36.092Z,32.19
2023-04-07T08:59:04.499Z,32.12
2023-04-07T09:01:33.493Z,31.68
2023-04-07T09:04:03.241Z,30.66
2023-04-07T09:06:33.082Z,30.45
2023-04-07T09:09:01.187Z,32.68
2023-04-07T09:11:30.365Z,31.69
2023-04-07T09:13:59.067Z,30.67
2023-04-07T09:16:31.059Z,30.29
2023-04-07T09:18:59.495Z,30.71
2023-04-07T09:21:27.872Z,31.40
2023-04-07T09:23:57.182Z,32.81
2023-04-07T09:26:27.302Z,31.13
2023-04-07T09:28:58.625Z,32.68
2023-04-07T09:31:46.104Z,29.36
2023-04-07T09:34:26.267Z,28.83
2023-04-07T09:36:54.196Z,28.56
2023-04-07T09:39:23.624Z,30.17
2023-04-07T09:41:52.134Z,28.79
2023-04-07T09:44:20.124Z,31.59
2023-04-07T09:46:52.223Z,29.32
2023-04-07T09:49:21.240Z,29.22
2023-04-07T09:52:00.151Z,28.96
2023-04-07T09:54:36.667Z,30.27
2023-04-07T09:57:05.881Z,29.13
2023-04-07T09:59:35.145Z,30.37
2023-04-07T10:02:03.898Z,28.47
2023-04-07T10:04:32.042Z,29.05
2023-04-07T10:07:00.946Z,29.87
2023-04-07T10:09:29.787Z,31.96
2023-04-07T10:12:00.078Z,30.25
2023-04-07T10:14:29.695Z,30.35
2023-04-07T10:16:58.241Z,30.79
2023-04-07T10:19:28.186Z,29.59
2023-04-07T10:21:57.156Z,30.29
2023-04-07T10:24:39.258Z,31.01
2023-04-07T10:27:14.306Z,31.16
2023-04-07T10:29:44.726Z,34.42
2023-04-07T10:32:13.137Z,32.59
2023-04-07T10:35:00.039Z,32.98
2023-04-07T10:37:28.665Z,33.99
2023-04-07T10:40:31.358Z,34.51
2023-04-07T10:43:01.226Z,34.30
2023-04-07T10:45:59.626Z,33.95
2023-04-07T10:48:33.241Z,34.47
2023-04-07T10:51:18.048Z,33.74
2023-04-07T10:54:21.094Z,34.14
2023-04-07T10:57:12.008Z,33.42
2023-04-07T10:59:47.105Z,33.29
2023-04-07T11:02:35.052Z,33.06
2023-04-07T11:05:03.903Z,33.48
2023-04-07T11:07:51.530Z,36.73
2023-04-07T11:10:22.011Z,33.49
2023-04-07T11:13:01.012Z,32.46
2023-04-07T11:15:30.386Z,33.00
2023-04-07T11:18:15.235Z,34.54
2023-04-07T11:20:47.445Z,34.57
2023-04-07T11:23:16.654Z,33.85
2023-04-07T11:25:46.163Z,34.64
2023-04-07T11:28:15.768Z,34.94
2023-04-07T11:30:51.704Z,35.45
2023-04-07T11:33:21.475Z,34.70
2023-04-07T11:35:55.748Z,34.80
2023-04-07T11:38:25.775Z,34.12
2023-04-07T11:40:54.017Z,33.85
2023-04-07T11:43:23.931Z,34.12
2023-04-07T11:46:11.524Z,33.97
2023-04-07T11:48:41.366Z,34.82
2023-04-07T11:51:17.602Z,34.81
2023-04-07T11:53:46.347Z,35.31
2023-04-07T11:56:18.767Z,34.27
2023-04-07T11:58:50.090Z,34.42
2023-04-07T12:01:19.848Z,36.67
2023-04-07T12:03:59.381Z,34.98
2023-04-07T12:06:33.421Z,34.39
2023-04-07T12:09:02.133Z,34.71
2023-04-07T12:11:30.475Z,34.18
2023-04-07T12:13:58.433Z,33.16
2023-04-07T12:16:27.799Z,33.93
2023-04-07T12:18:55.780Z,33.14
2023-04-07T12:21:24.160Z,33.22
2023-04-07T12:23:52.395Z,34.60
2023-04-07T12:26:23.410Z,33.07
2023-04-07T12:28:51.502Z,33.25
2023-04-07T12:31:19.635Z,33.41
2023-04-07T12:33:49.082Z,34.24
2023-04-07T12:36:17.312Z,35.34
2023-04-07T12:38:45.705Z,35.70
2023-04-07T12:41:13.687Z,36.67
2023-04-07T12:43:41.680Z,35.29
2023-04-07T12:46:09.688Z,35.47
2023-04-07T12:48:37.684Z,35.14
2023-04-07T12:51:07.322Z,34.52
2023-04-07T12:53:35.399Z,34.81
2023-04-07T12:56:04.210Z,37.47
2023-04-07T12:58:32.209Z,36.20
2023-04-07T13:01:00.874Z,36.69
2023-04-07T13:03:29.085Z,36.43
2023-04-07T13:06:01.399Z,36.82
2023-04-07T13:08:30.730Z,37.84
2023-04-07T13:10:58.743Z,37.25
2023-04-07T13:13:26.626Z,37.12
2023-04-07T13:15:54.701Z,37.68
2023-04-07T13:18:22.924Z,37.33
2023-04-07T13:21:06.298Z,37.06
2023-04-07T13:23:43.868Z,37.18
2023-04-07T13:26:12.101Z,37.43
2023-04-07T13:28:40.055Z,37.63
2023-04-07T13:31:07.994Z,38.52
2023-04-07T13:33:37.746Z,38.53
2023-04-07T13:36:05.700Z,38.67
2023-04-07T13:38:33.620Z,38.59
2023-04-07T13:41:04.145Z,38.22
2023-04-07T13:43:32.240Z,38.45
2023-04-07T13:46:00.249Z,38.42
2023-04-07T13:48:28.160Z,39.05
2023-04-07T13:50:56.043Z,39.41
2023-04-07T13:53:24.059Z,40.05
2023-04-07T13:55:52.033Z,39.30
2023-04-07T13:58:21.296Z,39.01
2023-04-07T14:00:49.252Z,39.33
2023-04-07T14:03:17.243Z,39.88
2023-04-07T14:05:45.223Z,39.35
2023-04-07T14:08:13.112Z,39.50
2023-04-07T14:10:42.162Z,39.61
2023-04-07T14:13:10.961Z,39.07
2023-04-07T14:15:40.321Z,39.54
2023-04-07T14:18:09.417Z,39.40
2023-04-07T14:20:38.046Z,39.96
2023-04-07T14:23:06.000Z,39.81
2023-04-07T14:25:33.966Z,39.66
2023-04-07T14:28:02.387Z,39.82
2023-04-07T14:30:30.933Z,38.81
2023-04-07T14:33:01.088Z,39.02
2023-04-07T14:35:29.828Z,38.88
2023-04-07T14:37:57.862Z,40.06
2023-04-07T14:40:26.023Z,40.55
2023-04-07T14:43:06.709Z,40.34
2023-04-07T14:45:36.127Z,40.39
2023-04-07T14:48:05.869Z,40.66
2023-04-07T14:50:33.826Z,40.53
2023-04-07T14:53:02.419Z,40.49
2023-04-07T14:55:30.981Z,40.47
2023-04-07T14:57:58.877Z,40.57
2023-04-07T15:00:28.789Z,40.92
2023-04-07T15:02:57.060Z,41.35
2023-04-07T15:05:28.712Z,41.31
2023-04-07T15:07:57.139Z,41.27
2023-04-07T15:10:25.028Z,41.81
2023-04-07T15:12:52.903Z,41.65
2023-04-07T15:15:21.040Z,41.71
2023-04-07T15:17:49.023Z,41.89
2023-04-07T15:20:17.067Z,42.11
2023-04-07T15:22:46.345Z,42.98
2023-04-07T15:25:14.245Z,43.66
2023-04-07T15:27:42.166Z,43.74
2023-04-07T15:30:10.666Z,43.87
2023-04-07T15:32:38.673Z,44.05
2023-04-07T15:35:07.250Z,44.67
2023-04-07T15:37:35.157Z,44.61
2023-04-07T15:40:04.733Z,44.83
2023-04-07T15:42:35.624Z,45.40
2023-04-07T15:45:03.649Z,45.47
2023-04-07T15:47:31.635Z,45.72
2023-04-07T15:49:59.577Z,45.47
2023-04-07T15:52:27.744Z,45.65
2023-04-07T15:54:55.766Z,45.69
2023-04-07T15:57:25.152Z,46.46
2023-04-07T15:59:53.369Z,46.54
2023-04-07T16:02:21.524Z,46.56
2023-04-07T16:04:49.624Z,46.81
2023-04-07T16:07:17.761Z,47.56
2023-04-07T16:09:45.700Z,47.06
2023-04-07T16:12:13.822Z,47.07
2023-04-07T16:14:43.255Z,47.10
2023-04-07T16:17:11.536Z,47.20
2023-04-07T16:19:39.481Z,46.34
2023-04-07T16:22:07.469Z,46.57
2023-04-07T16:24:35.393Z,46.44
2023-04-07T16:27:04.464Z,47.59
2023-04-07T16:29:32.627Z,47.86
2023-04-07T16:32:02.770Z,48.66
2023-04-07T16:34:30.794Z,49.30
2023-04-07T16:36:58.766Z,49.18
2023-04-07T16:39:29.311Z,49.91
2023-04-07T16:41:57.625Z,50.15
2023-04-07T16:44:26.012Z,50.42
2023-04-07T16:46:54.036Z,50.86
2023-04-07T16:49:23.358Z,51.31
2023-04-07T16:51:51.282Z,50.98
2023-04-07T16:54:19.168Z,52.03
2023-04-07T16:56:47.072Z,52.66
2023-04-07T16:59:15.250Z,52.97
2023-04-07T17:01:44.848Z,53.70
2023-04-07T17:04:12.921Z,53.46
2023-04-07T17:06:42.220Z,52.84
2023-04-07T17:09:12.156Z,53.10
2023-04-07T17:11:42.089Z,53.29
2023-04-07T17:14:10.049Z,53.69
2023-04-07T17:16:37.952Z,53.59
2023-04-07T17:19:05.865Z,53.42
2023-04-07T17:21:33.759Z,54.13
2023-04-07T17:24:03.061Z,54.51
2023-04-07T17:26:31.426Z,55.82
2023-04-07T17:28:59.692Z,55.84
2023-04-07T17:31:27.933Z,56.03
2023-04-07T17:33:56.126Z,56.88
2023-04-07T17:36:24.054Z,57.95
2023-04-07T17:38:51.870Z,57.78
2023-04-07T17:41:21.309Z,58.66
2023-04-07T17:43:49.568Z,58.12
2023-04-07T17:46:17.674Z,57.30
2023-04-07T17:48:45.703Z,57.28
2023-04-07T17:51:14.285Z,57.97
2023-04-07T17:53:42.256Z,58.43
2023-04-07T17:56:10.173Z,59.50
2023-04-07T17:58:39.484Z,59.54
2023-04-07T18:01:09.473Z,59.93
2023-04-07T18:03:38.309Z,60.22
2023-04-07T18:06:08.469Z,60.13
2023-04-07T18:08:36.561Z,60.41
2023-04-07T18:11:06.963Z,59.97
2023-04-07T18:13:35.070Z,59.68
2023-04-07T18:16:07.684Z,59.90
2023-04-07T18:18:36.372Z,60.03
2023-04-07T18:21:04.811Z,59.86
2023-04-07T18:23:32.752Z,58.85
2023-04-07T18:26:04.706Z,58.06
2023-04-07T18:28:32.965Z,57.72
2023-04-07T18:31:02.439Z,57.54
2023-04-07T18:33:33.094Z,58.15
2023-04-07T18:36:07.841Z,58.20
2023-04-07T18:38:36.565Z,58.28
2023-04-07T18:41:04.928Z,58.70
2023-04-07T18:43:32.912Z,59.01
2023-04-07T18:46:00.899Z,58.57
2023-04-07T18:48:28.821Z,57.67
2023-04-07T18:50:58.199Z,56.62
2023-04-07T18:53:26.538Z,56.56
2023-04-07T18:55:54.470Z,56.40
2023-04-07T18:58:22.416Z,56.07
2023-04-07T19:00:52.833Z,55.48
2023-04-07T19:03:21.734Z,55.19
2023-04-07T19:05:52.617Z,53.54
2023-04-07T19:08:22.124Z,52.73
2023-04-07T19:10:51.074Z,52.17
2023-04-07T19:13:19.665Z,51.48
2023-04-07T19:15:47.807Z,52.73
2023-04-07T19:18:16.156Z,52.33
2023-04-07T19:20:44.394Z,52.80
2023-04-07T19:23:12.385Z,51.66
2023-04-07T19:25:44.385Z,51.72
2023-04-07T19:28:13.643Z,51.57
2023-04-07T19:30:41.628Z,51.68
2023-04-07T19:33:09.588Z,51.12
2023-04-07T19:35:39.131Z,51.16
2023-04-07T19:38:07.534Z,51.10
2023-04-07T19:40:35.479Z,51.76
2023-04-07T19:43:05.007Z,51.29
2023-04-07T19:45:33.039Z,51.35
2023-04-07T19:48:01.299Z,50.83
2023-04-07T19:50:29.388Z,51.20
2023-04-07T19:52:57.410Z,52.37
2023-04-07T19:55:26.025Z,51.63
2023-04-07T19:57:53.947Z,51.56
2023-04-07T20:00:23.617Z,51.23
2023-04-07T20:02:51.805Z,52.09
2023-04-07T20:05:20.015Z,52.13
2023-04-07T20:07:47.997Z,51.83
2023-04-07T20:10:16.151Z,51.75
2023-04-07T20:12:44.079Z,51.62
2023-04-07T20:15:12.737Z,53.35
2023-04-07T20:17:42.281Z,53.53
2023-04-07T20:20:11.157Z,52.80
2023-04-07T20:22:39.191Z,52.73
2023-04-07T20:25:08.163Z,52.41
2023-04-07T20:27:36.189Z,52.44
2023-04-07T20:30:04.458Z,52.19
2023-04-07T20:32:32.428Z,52.08
2023-04-07T20:35:02.794Z,52.79
2023-04-07T20:37:30.743Z,52.72
2023-04-07T20:39:58.866Z,53.16
2023-04-07T20:42:26.801Z,53.82
2023-04-07T20:44:59.116Z,52.67
2023-04-07T20:47:27.131Z,53.26
2023-04-07T20:49:55.390Z,53.27
2023-04-07T20:52:25.866Z,52.52
2023-04-07T20:54:53.861Z,52.41
2023-04-07T20:57:22.007Z,52.51
2023-04-07T20:59:49.975Z,53.18
2023-04-07T21:02:18.128Z,52.44
2023-04-07T21:04:46.200Z,52.24
2023-04-07T21:07:14.163Z,52.42
2023-04-07T21:09:43.400Z,52.19
2023-04-07T21:12:11.510Z,52.33
2023-04-07T21:14:39.382Z,51.99
2023-04-07T21:17:07.381Z,52.02
2023-04-07T21:19:35.657Z,51.71
2023-04-07T21:22:04.771Z,52.31
2023-04-07T21:24:33.052Z,52.17
2023-04-07T21:27:02.408Z,51.87
2023-04-07T21:29:31.800Z,52.42
2023-04-07T21:31:59.836Z,52.55
2023-04-07T21:34:27.743Z,51.91
2023-04-07T21:36:55.661Z,51.95
2023-04-07T21:39:23.661Z,51.94
2023-04-07T21:41:52.831Z,51.74
2023-04-07T21:44:22.614Z,51.93
2023-04-07T21:46:50.627Z,51.83
2023-04-07T21:49:22.218Z,52.25
2023-04-07T21:51:50.243Z,51.84
2023-04-07T21:54:18.448Z,51.74
2023-04-07T21:56:49.078Z,52.91
2023-04-07T21:59:17.768Z,51.54
2023-04-07T22:01:47.254Z,51.83
2023-04-07T22:04:15.752Z,51.98
2023-04-07T22:06:43.755Z,51.98
2023-04-07T22:09:12.013Z,51.89
2023-04-07T22:11:40.032Z,52.41
2023-04-07T22:14:07.967Z,51.53
2023-04-07T22:16:36.633Z,51.73
2023-04-07T22:19:05.963Z,51.66
2023-04-07T22:21:33.958Z,51.37
2023-04-07T22:24:01.879Z,52.22
2023-04-07T22:26:31.774Z,52.88
2023-04-07T22:28:59.657Z,53.34
2023-04-07T22:31:27.649Z,53.74
2023-04-07T22:33:55.612Z,52.91
2023-04-07T22:36:24.899Z,52.62
2023-04-07T22:38:52.794Z,53.22
2023-04-07T22:41:21.506Z,53.23
2023-04-07T22:43:49.418Z,53.54
2023-04-07T22:46:18.146Z,54.11
2023-04-07T22:48:46.147Z,54.42
2023-04-07T22:51:14.065Z,54.33
2023-04-07T22:53:43.342Z,54.12
2023-04-07T22:56:11.346Z,54.57
2023-04-07T22:58:39.577Z,54.46
2023-04-07T23:01:07.780Z,53.82
2023-04-07T23:03:35.861Z,53.91
2023-04-07T23:06:04.196Z,53.48
2023-04-07T23:08:32.240Z,54.82
2023-04-07T23:11:01.550Z,54.96
2023-04-07T23:13:29.490Z,54.88
2023-04-07T23:15:58.171Z,55.43
2023-04-07T23:18:26.080Z,56.16
2023-04-07T23:20:54.138Z,55.25
2023-04-07T23:23:22.105Z,56.12
2023-04-07T23:25:50.002Z,55.97
2023-04-07T23:28:19.322Z,55.48
2023-04-07T23:30:47.231Z,55.21
2023-04-07T23:33:15.182Z,56.49
2023-04-07T23:35:43.109Z,56.03
2023-04-07T23:38:11.092Z,56.97
2023-04-07T23:40:39.092Z,57.19
2023-04-07T23:43:07.200Z,56.48
2023-04-07T23:45:36.597Z,59.81
2023-04-07T23:48:04.691Z,60.18
2023-04-07T23:50:32.599Z,58.76
2023-04-07T23:53:00.462Z,57.99
2023-04-07T23:55:28.461Z,57.27
2023-04-07T23:57:56.353Z,57.98
